sensor_id;sensor_type;location;lat;lon;timestamp;P1;durP1;ratioP1;P2;durP2;ratioP2
59008;SDS011;44794;42.652;23.318;2023-07-29T00:01:04;8.10;;;5.38;;
59008;SDS011;44794;42.652;23.318;2023-07-29T00:03:30;6.90;;;4.60;;
59008;SDS011;44794;42.652;23.318;2023-07-29T00:05:57;7.03;;;4.80;;
59008;SDS011;44794;42.652;23.318;2023-07-29T00:08:22;8.63;;;5.10;;
59008;SDS011;44794;42.652;23.318;2023-07-29T00:10:48;7.05;;;4.68;;
59008;SDS011;44794;42.652;23.318;2023-07-29T00:13:13;8.27;;;4.70;;
59008;SDS011;44794;42.652;23.318;2023-07-29T00:15:38;7.63;;;4.68;;
59008;SDS011;44794;42.652;23.318;2023-07-29T00:18:04;7.10;;;4.60;;
59008;SDS011;44794;42.652;23.318;2023-07-29T00:20:29;9.98;;;4.93;;
59008;SDS011;44794;42.652;23.318;2023-07-29T00:22:54;6.82;;;4.53;;
59008;SDS011;44794;42.652;23.318;2023-07-29T00:25:20;5.57;;;4.57;;
59008;SDS011;44794;42.652;23.318;2023-07-29T00:27:46;5.95;;;4.47;;
59008;SDS011;44794;42.652;23.318;2023-07-29T00:30:12;5.10;;;4.60;;
59008;SDS011;44794;42.652;23.318;2023-07-29T00:32:37;7.50;;;4.88;;
59008;SDS011;44794;42.652;23.318;2023-07-29T00:35:03;8.60;;;4.78;;
59008;SDS011;44794;42.652;23.318;2023-07-29T00:37:29;6.65;;;5.25;;
59008;SDS011;44794;42.652;23.318;2023-07-29T00:39:55;7.22;;;4.65;;
59008;SDS011;44794;42.652;23.318;2023-07-29T00:42:21;6.90;;;4.53;;
59008;SDS011;44794;42.652;23.318;2023-07-29T00:44:46;7.70;;;4.80;;
59008;SDS011;44794;42.652;23.318;2023-07-29T00:47:12;5.97;;;4.93;;
59008;SDS011;44794;42.652;23.318;2023-07-29T00:49:40;7.93;;;4.72;;
59008;SDS011;44794;42.652;23.318;2023-07-29T00:52:05;6.35;;;4.68;;
59008;SDS011;44794;42.652;23.318;2023-07-29T00:54:31;9.48;;;5.32;;
59008;SDS011;44794;42.652;23.318;2023-07-29T00:56:56;7.18;;;4.90;;
59008;SDS011;44794;42.652;23.318;2023-07-29T00:59:22;11.50;;;5.28;;
59008;SDS011;44794;42.652;23.318;2023-07-29T01:01:48;6.95;;;5.20;;
59008;SDS011;44794;42.652;23.318;2023-07-29T01:04:13;7.20;;;5.10;;
59008;SDS011;44794;42.652;23.318;2023-07-29T01:09:53;7.85;;;5.43;;
59008;SDS011;44794;42.652;23.318;2023-07-29T01:12:27;6.28;;;4.88;;
59008;SDS011;44794;42.652;23.318;2023-07-29T01:15:16;7.82;;;5.03;;
59008;SDS011;44794;42.652;23.318;2023-07-29T01:17:47;8.55;;;5.43;;
59008;SDS011;44794;42.652;23.318;2023-07-29T01:20:16;8.27;;;5.32;;
59008;SDS011;44794;42.652;23.318;2023-07-29T01:22:45;10.18;;;5.47;;
59008;SDS011;44794;42.652;23.318;2023-07-29T01:25:12;10.18;;;5.53;;
59008;SDS011;44794;42.652;23.318;2023-07-29T01:27:38;7.28;;;5.38;;
59008;SDS011;44794;42.652;23.318;2023-07-29T01:30:04;8.15;;;5.32;;
59008;SDS011;44794;42.652;23.318;2023-07-29T01:32:52;9.43;;;5.28;;
59008;SDS011;44794;42.652;23.318;2023-07-29T01:37:51;7.53;;;5.45;;
59008;SDS011;44794;42.652;23.318;2023-07-29T01:40:18;7.47;;;5.40;;
59008;SDS011;44794;42.652;23.318;2023-07-29T01:42:47;8.98;;;5.40;;
59008;SDS011;44794;42.652;23.318;2023-07-29T01:45:12;8.55;;;5.57;;
59008;SDS011;44794;42.652;23.318;2023-07-29T01:47:38;7.72;;;5.65;;
59008;SDS011;44794;42.652;23.318;2023-07-29T01:50:05;6.82;;;5.57;;
59008;SDS011;44794;42.652;23.318;2023-07-29T01:52:31;9.70;;;5.95;;
59008;SDS011;44794;42.652;23.318;2023-07-29T01:54:57;7.80;;;6.13;;
59008;SDS011;44794;42.652;23.318;2023-07-29T01:57:22;8.00;;;6.30;;
59008;SDS011;44794;42.652;23.318;2023-07-29T01:59:47;10.25;;;5.85;;
59008;SDS011;44794;42.652;23.318;2023-07-29T02:02:13;8.10;;;5.88;;
59008;SDS011;44794;42.652;23.318;2023-07-29T02:04:38;7.20;;;5.85;;
59008;SDS011;44794;42.652;23.318;2023-07-29T02:07:04;9.32;;;6.20;;
59008;SDS011;44794;42.652;23.318;2023-07-29T02:09:29;8.63;;;6.70;;
59008;SDS011;44794;42.652;23.318;2023-07-29T02:11:56;7.40;;;6.15;;
59008;SDS011;44794;42.652;23.318;2023-07-29T02:14:22;7.20;;;5.90;;
59008;SDS011;44794;42.652;23.318;2023-07-29T02:16:48;8.48;;;6.00;;
59008;SDS011;44794;42.652;23.318;2023-07-29T02:19:14;9.65;;;6.10;;
59008;SDS011;44794;42.652;23.318;2023-07-29T02:21:39;7.63;;;5.75;;
59008;SDS011;44794;42.652;23.318;2023-07-29T02:24:05;7.05;;;5.90;;
59008;SDS011;44794;42.652;23.318;2023-07-29T02:26:30;8.57;;;5.97;;
59008;SDS011;44794;42.652;23.318;2023-07-29T02:28:56;9.27;;;6.47;;
59008;SDS011;44794;42.652;23.318;2023-07-29T02:31:22;8.63;;;6.03;;
59008;SDS011;44794;42.652;23.318;2023-07-29T02:33:48;7.88;;;6.30;;
59008;SDS011;44794;42.652;23.318;2023-07-29T02:36:14;8.35;;;6.15;;
59008;SDS011;44794;42.652;23.318;2023-07-29T02:38:40;7.05;;;6.22;;
59008;SDS011;44794;42.652;23.318;2023-07-29T02:41:07;8.60;;;6.72;;
59008;SDS011;44794;42.652;23.318;2023-07-29T02:43:34;9.88;;;6.50;;
59008;SDS011;44794;42.652;23.318;2023-07-29T02:46:00;7.43;;;6.10;;
59008;SDS011;44794;42.652;23.318;2023-07-29T02:48:26;9.15;;;6.53;;
59008;SDS011;44794;42.652;23.318;2023-07-29T02:50:53;10.32;;;6.35;;
59008;SDS011;44794;42.652;23.318;2023-07-29T02:53:18;10.05;;;6.32;;
59008;SDS011;44794;42.652;23.318;2023-07-29T02:55:44;11.02;;;6.20;;
59008;SDS011;44794;42.652;23.318;2023-07-29T02:58:09;11.02;;;6.45;;
59008;SDS011;44794;42.652;23.318;2023-07-29T03:00:34;10.38;;;6.10;;
59008;SDS011;44794;42.652;23.318;2023-07-29T03:03:00;9.75;;;6.63;;
59008;SDS011;44794;42.652;23.318;2023-07-29T03:05:29;7.82;;;6.15;;
59008;SDS011;44794;42.652;23.318;2023-07-29T03:07:54;8.02;;;5.55;;
59008;SDS011;44794;42.652;23.318;2023-07-29T03:10:20;10.55;;;6.60;;
59008;SDS011;44794;42.652;23.318;2023-07-29T03:12:45;14.88;;;6.80;;
59008;SDS011;44794;42.652;23.318;2023-07-29T03:15:11;10.23;;;6.68;;
59008;SDS011;44794;42.652;23.318;2023-07-29T03:17:37;11.10;;;6.97;;
59008;SDS011;44794;42.652;23.318;2023-07-29T03:20:02;7.25;;;6.07;;
59008;SDS011;44794;42.652;23.318;2023-07-29T03:22:28;9.80;;;6.60;;
59008;SDS011;44794;42.652;23.318;2023-07-29T03:24:53;9.70;;;6.18;;
59008;SDS011;44794;42.652;23.318;2023-07-29T03:27:19;8.77;;;6.45;;
59008;SDS011;44794;42.652;23.318;2023-07-29T03:29:44;10.45;;;6.80;;
59008;SDS011;44794;42.652;23.318;2023-07-29T03:32:11;9.38;;;7.13;;
59008;SDS011;44794;42.652;23.318;2023-07-29T03:34:36;8.35;;;7.00;;
59008;SDS011;44794;42.652;23.318;2023-07-29T03:37:01;9.07;;;6.30;;
59008;SDS011;44794;42.652;23.318;2023-07-29T03:39:27;9.98;;;5.80;;
59008;SDS011;44794;42.652;23.318;2023-07-29T03:41:52;10.27;;;6.25;;
59008;SDS011;44794;42.652;23.318;2023-07-29T03:44:18;8.07;;;6.10;;
59008;SDS011;44794;42.652;23.318;2023-07-29T03:46:44;10.07;;;6.43;;
59008;SDS011;44794;42.652;23.318;2023-07-29T03:49:09;8.65;;;6.55;;
59008;SDS011;44794;42.652;23.318;2023-07-29T03:51:35;8.18;;;6.32;;
59008;SDS011;44794;42.652;23.318;2023-07-29T03:54:01;9.20;;;6.70;;
59008;SDS011;44794;42.652;23.318;2023-07-29T03:56:26;8.55;;;6.28;;
59008;SDS011;44794;42.652;23.318;2023-07-29T03:58:52;12.93;;;6.20;;
59008;SDS011;44794;42.652;23.318;2023-07-29T04:01:18;16.92;;;6.75;;
59008;SDS011;44794;42.652;23.318;2023-07-29T04:03:44;8.48;;;6.28;;
59008;SDS011;44794;42.652;23.318;2023-07-29T04:06:11;8.93;;;6.75;;
59008;SDS011;44794;42.652;23.318;2023-07-29T04:08:37;10.02;;;6.32;;
59008;SDS011;44794;42.652;23.318;2023-07-29T04:11:02;8.43;;;6.30;;
59008;SDS011;44794;42.652;23.318;2023-07-29T04:13:28;9.80;;;6.20;;
59008;SDS011;44794;42.652;23.318;2023-07-29T04:15:53;11.05;;;6.63;;
59008;SDS011;44794;42.652;23.318;2023-07-29T04:18:19;8.60;;;6.55;;
59008;SDS011;44794;42.652;23.318;2023-07-29T04:20:44;11.80;;;6.70;;
59008;SDS011;44794;42.652;23.318;2023-07-29T04:23:09;10.02;;;6.75;;
59008;SDS011;44794;42.652;23.318;2023-07-29T04:25:35;10.63;;;7.00;;
59008;SDS011;44794;42.652;23.318;2023-07-29T04:28:00;9.63;;;7.20;;
59008;SDS011;44794;42.652;23.318;2023-07-29T04:30:28;10.80;;;6.55;;
59008;SDS011;44794;42.652;23.318;2023-07-29T04:32:53;9.43;;;6.63;;
59008;SDS011;44794;42.652;23.318;2023-07-29T04:35:19;8.77;;;6.78;;
59008;SDS011;44794;42.652;23.318;2023-07-29T04:37:44;10.98;;;7.13;;
59008;SDS011;44794;42.652;23.318;2023-07-29T04:40:10;10.95;;;6.47;;
59008;SDS011;44794;42.652;23.318;2023-07-29T04:42:36;9.70;;;6.57;;
59008;SDS011;44794;42.652;23.318;2023-07-29T04:45:01;8.65;;;6.07;;
59008;SDS011;44794;42.652;23.318;2023-07-29T04:47:27;11.00;;;6.28;;
59008;SDS011;44794;42.652;23.318;2023-07-29T04:49:52;8.43;;;6.53;;
59008;SDS011;44794;42.652;23.318;2023-07-29T04:52:18;11.23;;;6.50;;
59008;SDS011;44794;42.652;23.318;2023-07-29T04:54:44;8.57;;;6.57;;
59008;SDS011;44794;42.652;23.318;2023-07-29T04:57:10;9.00;;;6.50;;
59008;SDS011;44794;42.652;23.318;2023-07-29T04:59:35;14.70;;;6.95;;
59008;SDS011;44794;42.652;23.318;2023-07-29T05:02:00;10.07;;;6.32;;
59008;SDS011;44794;42.652;23.318;2023-07-29T05:04:26;8.85;;;6.07;;
59008;SDS011;44794;42.652;23.318;2023-07-29T05:06:51;10.32;;;6.10;;
59008;SDS011;44794;42.652;23.318;2023-07-29T05:09:19;8.30;;;5.90;;
59008;SDS011;44794;42.652;23.318;2023-07-29T05:11:47;10.35;;;5.63;;
59008;SDS011;44794;42.652;23.318;2023-07-29T05:14:14;7.85;;;5.32;;
59008;SDS011;44794;42.652;23.318;2023-07-29T05:16:40;6.88;;;5.47;;
59008;SDS011;44794;42.652;23.318;2023-07-29T05:19:06;7.65;;;5.10;;
59008;SDS011;44794;42.652;23.318;2023-07-29T05:21:31;8.35;;;4.85;;
59008;SDS011;44794;42.652;23.318;2023-07-29T05:23:56;5.65;;;4.78;;
59008;SDS011;44794;42.652;23.318;2023-07-29T05:26:22;6.68;;;4.38;;
59008;SDS011;44794;42.652;23.318;2023-07-29T05:28:47;6.97;;;4.85;;
59008;SDS011;44794;42.652;23.318;2023-07-29T05:31:13;6.80;;;4.78;;
59008;SDS011;44794;42.652;23.318;2023-07-29T05:33:38;5.60;;;4.32;;
59008;SDS011;44794;42.652;23.318;2023-07-29T05:36:04;7.88;;;4.55;;
59008;SDS011;44794;42.652;23.318;2023-07-29T05:38:30;6.57;;;4.22;;
59008;SDS011;44794;42.652;23.318;2023-07-29T05:40:55;11.25;;;4.45;;
59008;SDS011;44794;42.652;23.318;2023-07-29T05:43:21;8.30;;;4.60;;
59008;SDS011;44794;42.652;23.318;2023-07-29T05:45:46;5.97;;;4.53;;
59008;SDS011;44794;42.652;23.318;2023-07-29T05:48:12;8.43;;;4.65;;
59008;SDS011;44794;42.652;23.318;2023-07-29T05:50:37;5.60;;;4.75;;
59008;SDS011;44794;42.652;23.318;2023-07-29T05:53:03;6.85;;;4.55;;
59008;SDS011;44794;42.652;23.318;2023-07-29T05:55:28;9.63;;;4.78;;
59008;SDS011;44794;42.652;23.318;2023-07-29T05:57:54;5.45;;;4.60;;
59008;SDS011;44794;42.652;23.318;2023-07-29T06:00:20;5.75;;;4.70;;
59008;SDS011;44794;42.652;23.318;2023-07-29T06:02:45;6.95;;;4.85;;
59008;SDS011;44794;42.652;23.318;2023-07-29T06:05:11;10.82;;;4.95;;
59008;SDS011;44794;42.652;23.318;2023-07-29T06:07:36;6.63;;;4.47;;
59008;SDS011;44794;42.652;23.318;2023-07-29T06:10:03;8.80;;;4.55;;
59008;SDS011;44794;42.652;23.318;2023-07-29T06:12:28;10.57;;;4.93;;
59008;SDS011;44794;42.652;23.318;2023-07-29T06:14:53;6.30;;;4.30;;
59008;SDS011;44794;42.652;23.318;2023-07-29T06:17:19;8.57;;;4.40;;
59008;SDS011;44794;42.652;23.318;2023-07-29T06:19:44;5.20;;;4.10;;
59008;SDS011;44794;42.652;23.318;2023-07-29T06:22:10;4.78;;;3.90;;
59008;SDS011;44794;42.652;23.318;2023-07-29T06:24:35;6.57;;;4.30;;
59008;SDS011;44794;42.652;23.318;2023-07-29T06:27:00;6.50;;;4.38;;
59008;SDS011;44794;42.652;23.318;2023-07-29T06:29:26;8.18;;;4.45;;
59008;SDS011;44794;42.652;23.318;2023-07-29T06:31:51;4.68;;;4.20;;
59008;SDS011;44794;42.652;23.318;2023-07-29T06:34:17;5.30;;;4.35;;
59008;SDS011;44794;42.652;23.318;2023-07-29T06:36:43;7.07;;;4.57;;
59008;SDS011;44794;42.652;23.318;2023-07-29T06:39:09;6.32;;;4.30;;
59008;SDS011;44794;42.652;23.318;2023-07-29T06:41:34;6.75;;;4.38;;
59008;SDS011;44794;42.652;23.318;2023-07-29T06:44:00;5.22;;;4.18;;
59008;SDS011;44794;42.652;23.318;2023-07-29T06:46:25;5.60;;;4.30;;
59008;SDS011;44794;42.652;23.318;2023-07-29T06:48:51;7.13;;;4.20;;
59008;SDS011;44794;42.652;23.318;2023-07-29T06:51:16;4.97;;;4.03;;
59008;SDS011;44794;42.652;23.318;2023-07-29T06:53:41;5.32;;;4.25;;
59008;SDS011;44794;42.652;23.318;2023-07-29T06:56:07;5.07;;;3.75;;
59008;SDS011;44794;42.652;23.318;2023-07-29T06:58:32;6.50;;;4.13;;
59008;SDS011;44794;42.652;23.318;2023-07-29T07:00:58;9.18;;;4.05;;
59008;SDS011;44794;42.652;23.318;2023-07-29T07:03:23;7.25;;;4.00;;
59008;SDS011;44794;42.652;23.318;2023-07-29T07:05:49;6.05;;;4.00;;
59008;SDS011;44794;42.652;23.318;2023-07-29T07:08:15;5.20;;;3.72;;
59008;SDS011;44794;42.652;23.318;2023-07-29T07:10:40;3.80;;;3.25;;
59008;SDS011;44794;42.652;23.318;2023-07-29T07:13:06;8.18;;;4.13;;
59008;SDS011;44794;42.652;23.318;2023-07-29T07:15:31;7.20;;;3.70;;
59008;SDS011;44794;42.652;23.318;2023-07-29T07:17:57;6.43;;;3.95;;
59008;SDS011;44794;42.652;23.318;2023-07-29T07:20:22;5.38;;;3.85;;
59008;SDS011;44794;42.652;23.318;2023-07-29T07:22:47;8.32;;;4.38;;
59008;SDS011;44794;42.652;23.318;2023-07-29T07:25:13;6.72;;;4.53;;
59008;SDS011;44794;42.652;23.318;2023-07-29T07:27:38;7.03;;;4.00;;
59008;SDS011;44794;42.652;23.318;2023-07-29T07:30:04;5.05;;;3.90;;
59008;SDS011;44794;42.652;23.318;2023-07-29T07:32:29;4.50;;;3.58;;
59008;SDS011;44794;42.652;23.318;2023-07-29T07:34:55;4.63;;;3.47;;
59008;SDS011;44794;42.652;23.318;2023-07-29T07:37:20;7.70;;;4.13;;
59008;SDS011;44794;42.652;23.318;2023-07-29T07:39:46;5.47;;;4.00;;
59008;SDS011;44794;42.652;23.318;2023-07-29T07:42:11;5.70;;;3.78;;
59008;SDS011;44794;42.652;23.318;2023-07-29T07:44:36;5.47;;;3.55;;
59008;SDS011;44794;42.652;23.318;2023-07-29T07:47:02;4.22;;;3.78;;
59008;SDS011;44794;42.652;23.318;2023-07-29T07:49:28;4.95;;;3.97;;
59008;SDS011;44794;42.652;23.318;2023-07-29T07:51:53;7.40;;;4.40;;
59008;SDS011;44794;42.652;23.318;2023-07-29T07:54:18;7.57;;;4.68;;
59008;SDS011;44794;42.652;23.318;2023-07-29T07:56:44;5.60;;;4.47;;
59008;SDS011;44794;42.652;23.318;2023-07-29T07:59:09;6.45;;;4.70;;
59008;SDS011;44794;42.652;23.318;2023-07-29T08:01:35;8.63;;;4.32;;
59008;SDS011;44794;42.652;23.318;2023-07-29T08:04:01;7.60;;;4.68;;
59008;SDS011;44794;42.652;23.318;2023-07-29T08:06:27;8.23;;;4.95;;
59008;SDS011;44794;42.652;23.318;2023-07-29T08:08:52;5.35;;;4.85;;
59008;SDS011;44794;42.652;23.318;2023-07-29T08:11:18;9.82;;;5.13;;
59008;SDS011;44794;42.652;23.318;2023-07-29T08:13:43;9.30;;;5.13;;
59008;SDS011;44794;42.652;23.318;2023-07-29T08:16:08;7.30;;;5.07;;
59008;SDS011;44794;42.652;23.318;2023-07-29T08:18:34;7.15;;;4.70;;
59008;SDS011;44794;42.652;23.318;2023-07-29T08:21:00;8.45;;;5.25;;
59008;SDS011;44794;42.652;23.318;2023-07-29T08:23:29;8.23;;;4.60;;
59008;SDS011;44794;42.652;23.318;2023-07-29T08:25:57;9.60;;;5.43;;
59008;SDS011;44794;42.652;23.318;2023-07-29T08:28:37;7.50;;;6.15;;
59008;SDS011;44794;42.652;23.318;2023-07-29T08:31:04;11.75;;;5.43;;
59008;SDS011;44794;42.652;23.318;2023-07-29T08:33:30;7.68;;;5.82;;
59008;SDS011;44794;42.652;23.318;2023-07-29T08:35:57;11.85;;;5.30;;
59008;SDS011;44794;42.652;23.318;2023-07-29T08:38:23;6.25;;;5.05;;
59008;SDS011;44794;42.652;23.318;2023-07-29T08:46:31;8.82;;;4.70;;
59008;SDS011;44794;42.652;23.318;2023-07-29T08:48:57;8.07;;;4.43;;
59008;SDS011;44794;42.652;23.318;2023-07-29T08:51:27;7.85;;;4.15;;
59008;SDS011;44794;42.652;23.318;2023-07-29T08:53:56;9.02;;;4.40;;
59008;SDS011;44794;42.652;23.318;2023-07-29T08:56:22;7.20;;;4.60;;
59008;SDS011;44794;42.652;23.318;2023-07-29T08:58:48;6.03;;;3.97;;
59008;SDS011;44794;42.652;23.318;2023-07-29T09:01:14;3.95;;;3.45;;
59008;SDS011;44794;42.652;23.318;2023-07-29T09:03:40;7.95;;;3.78;;
59008;SDS011;44794;42.652;23.318;2023-07-29T09:06:06;5.97;;;3.60;;
59008;SDS011;44794;42.652;23.318;2023-07-29T09:08:33;4.10;;;2.58;;
59008;SDS011;44794;42.652;23.318;2023-07-29T09:10:59;6.45;;;3.08;;
59008;SDS011;44794;42.652;23.318;2023-07-29T09:13:25;6.85;;;3.67;;
59008;SDS011;44794;42.652;23.318;2023-07-29T09:15:54;5.97;;;3.25;;
59008;SDS011;44794;42.652;23.318;2023-07-29T09:18:21;4.50;;;3.25;;
59008;SDS011;44794;42.652;23.318;2023-07-29T09:20:47;4.88;;;3.20;;
59008;SDS011;44794;42.652;23.318;2023-07-29T09:23:13;4.18;;;3.22;;
59008;SDS011;44794;42.652;23.318;2023-07-29T09:25:38;3.63;;;3.28;;
59008;SDS011;44794;42.652;23.318;2023-07-29T09:28:09;4.47;;;3.10;;
59008;SDS011;44794;42.652;23.318;2023-07-29T09:30:36;5.07;;;3.30;;
59008;SDS011;44794;42.652;23.318;2023-07-29T09:33:02;4.88;;;3.40;;
59008;SDS011;44794;42.652;23.318;2023-07-29T09:35:29;3.63;;;3.05;;
59008;SDS011;44794;42.652;23.318;2023-07-29T09:37:57;6.17;;;2.93;;
59008;SDS011;44794;42.652;23.318;2023-07-29T09:40:22;3.78;;;3.08;;
59008;SDS011;44794;42.652;23.318;2023-07-29T09:42:51;4.28;;;2.70;;
59008;SDS011;44794;42.652;23.318;2023-07-29T09:47:47;3.13;;;2.60;;
59008;SDS011;44794;42.652;23.318;2023-07-29T09:50:13;3.20;;;2.58;;
59008;SDS011;44794;42.652;23.318;2023-07-29T09:52:39;3.30;;;2.47;;
59008;SDS011;44794;42.652;23.318;2023-07-29T09:55:04;6.35;;;2.40;;
59008;SDS011;44794;42.652;23.318;2023-07-29T09:57:31;2.35;;;2.00;;
59008;SDS011;44794;42.652;23.318;2023-07-29T09:59:57;3.05;;;1.90;;
59008;SDS011;44794;42.652;23.318;2023-07-29T10:02:23;2.10;;;1.90;;
59008;SDS011;44794;42.652;23.318;2023-07-29T10:04:50;3.47;;;2.30;;
59008;SDS011;44794;42.652;23.318;2023-07-29T10:07:18;5.60;;;2.28;;
59008;SDS011;44794;42.652;23.318;2023-07-29T10:09:44;6.22;;;2.53;;
59008;SDS011;44794;42.652;23.318;2023-07-29T10:12:10;3.13;;;2.20;;
59008;SDS011;44794;42.652;23.318;2023-07-29T10:14:36;2.95;;;2.10;;
59008;SDS011;44794;42.652;23.318;2023-07-29T10:17:04;4.00;;;1.88;;
59008;SDS011;44794;42.652;23.318;2023-07-29T10:19:30;2.97;;;2.00;;
59008;SDS011;44794;42.652;23.318;2023-07-29T10:21:56;2.35;;;1.92;;
59008;SDS011;44794;42.652;23.318;2023-07-29T10:24:28;2.00;;;1.58;;
59008;SDS011;44794;42.652;23.318;2023-07-29T10:26:57;3.25;;;1.80;;
59008;SDS011;44794;42.652;23.318;2023-07-29T10:29:24;2.10;;;1.90;;
59008;SDS011;44794;42.652;23.318;2023-07-29T10:31:53;1.90;;;1.70;;
59008;SDS011;44794;42.652;23.318;2023-07-29T10:34:22;4.97;;;2.00;;
59008;SDS011;44794;42.652;23.318;2023-07-29T10:36:49;2.20;;;2.00;;
59008;SDS011;44794;42.652;23.318;2023-07-29T10:39:15;3.97;;;1.80;;
59008;SDS011;44794;42.652;23.318;2023-07-29T10:47:10;1.80;;;1.65;;
59008;SDS011;44794;42.652;23.318;2023-07-29T10:49:39;4.38;;;1.63;;
59008;SDS011;44794;42.652;23.318;2023-07-29T10:52:08;4.40;;;2.20;;
59008;SDS011;44794;42.652;23.318;2023-07-29T10:54:46;2.50;;;1.75;;
59008;SDS011;44794;42.652;23.318;2023-07-29T10:57:16;4.22;;;1.70;;
59008;SDS011;44794;42.652;23.318;2023-07-29T11:00:06;2.42;;;1.80;;
59008;SDS011;44794;42.652;23.318;2023-07-29T11:02:33;2.40;;;1.80;;
59008;SDS011;44794;42.652;23.318;2023-07-29T11:05:04;2.17;;;1.70;;
59008;SDS011;44794;42.652;23.318;2023-07-29T11:07:45;2.40;;;1.50;;
59008;SDS011;44794;42.652;23.318;2023-07-29T11:10:12;1.90;;;1.27;;
59008;SDS011;44794;42.652;23.318;2023-07-29T11:15:25;3.10;;;2.00;;
59008;SDS011;44794;42.652;23.318;2023-07-29T11:17:53;3.50;;;1.80;;
59008;SDS011;44794;42.652;23.318;2023-07-29T11:20:20;4.47;;;1.80;;
59008;SDS011;44794;42.652;23.318;2023-07-29T11:22:47;2.45;;;1.98;;
59008;SDS011;44794;42.652;23.318;2023-07-29T11:25:13;3.00;;;2.00;;
59008;SDS011;44794;42.652;23.318;2023-07-29T11:27:40;2.50;;;1.80;;
59008;SDS011;44794;42.652;23.318;2023-07-29T11:30:07;3.20;;;2.15;;
59008;SDS011;44794;42.652;23.318;2023-07-29T11:32:34;3.58;;;1.88;;
59008;SDS011;44794;42.652;23.318;2023-07-29T11:35:04;2.80;;;1.92;;
59008;SDS011;44794;42.652;23.318;2023-07-29T11:37:32;3.10;;;1.85;;
59008;SDS011;44794;42.652;23.318;2023-07-29T11:40:01;4.13;;;3.22;;
59008;SDS011;44794;42.652;23.318;2023-07-29T11:42:27;5.60;;;1.95;;
59008;SDS011;44794;42.652;23.318;2023-07-29T11:44:53;3.13;;;1.73;;
59008;SDS011;44794;42.652;23.318;2023-07-29T11:47:22;9.23;;;2.00;;
59008;SDS011;44794;42.652;23.318;2023-07-29T11:49:47;3.80;;;1.80;;
59008;SDS011;44794;42.652;23.318;2023-07-29T11:52:13;2.53;;;1.80;;
59008;SDS011;44794;42.652;23.318;2023-07-29T11:54:39;1.70;;;1.60;;
59008;SDS011;44794;42.652;23.318;2023-07-29T11:57:08;3.85;;;1.50;;
59008;SDS011;44794;42.652;23.318;2023-07-29T11:59:34;2.45;;;1.63;;
59008;SDS011;44794;42.652;23.318;2023-07-29T12:02:01;2.28;;;1.60;;
59008;SDS011;44794;42.652;23.318;2023-07-29T12:04:30;2.95;;;1.77;;
59008;SDS011;44794;42.652;23.318;2023-07-29T12:06:56;2.50;;;1.95;;
59008;SDS011;44794;42.652;23.318;2023-07-29T12:09:21;1.77;;;1.67;;
59008;SDS011;44794;42.652;23.318;2023-07-29T12:11:47;3.03;;;1.80;;
59008;SDS011;44794;42.652;23.318;2023-07-29T12:14:12;2.53;;;1.80;;
59008;SDS011;44794;42.652;23.318;2023-07-29T12:16:42;3.08;;;1.77;;
59008;SDS011;44794;42.652;23.318;2023-07-29T12:19:08;3.75;;;1.77;;
59008;SDS011;44794;42.652;23.318;2023-07-29T12:21:33;2.80;;;1.88;;
59008;SDS011;44794;42.652;23.318;2023-07-29T12:24:00;2.45;;;1.60;;
59008;SDS011;44794;42.652;23.318;2023-07-29T12:26:28;2.33;;;1.65;;
59008;SDS011;44794;42.652;23.318;2023-07-29T12:28:54;1.98;;;1.70;;
59008;SDS011;44794;42.652;23.318;2023-07-29T12:31:21;2.75;;;1.73;;
59008;SDS011;44794;42.652;23.318;2023-07-29T12:33:46;2.55;;;2.00;;
59008;SDS011;44794;42.652;23.318;2023-07-29T12:36:12;3.45;;;1.70;;
59008;SDS011;44794;42.652;23.318;2023-07-29T12:38:37;2.28;;;1.80;;
59008;SDS011;44794;42.652;23.318;2023-07-29T12:41:03;2.40;;;1.80;;
59008;SDS011;44794;42.652;23.318;2023-07-29T12:43:28;2.83;;;1.80;;
59008;SDS011;44794;42.652;23.318;2023-07-29T12:45:53;3.25;;;2.05;;
59008;SDS011;44794;42.652;23.318;2023-07-29T12:48:19;2.67;;;2.10;;
59008;SDS011;44794;42.652;23.318;2023-07-29T12:50:45;3.60;;;2.20;;
59008;SDS011;44794;42.652;23.318;2023-07-29T12:53:11;3.13;;;1.88;;
59008;SDS011;44794;42.652;23.318;2023-07-29T12:55:36;2.13;;;1.70;;
59008;SDS011;44794;42.652;23.318;2023-07-29T12:58:02;2.40;;;1.80;;
59008;SDS011;44794;42.652;23.318;2023-07-29T13:00:27;4.05;;;1.80;;
59008;SDS011;44794;42.652;23.318;2023-07-29T13:02:53;3.10;;;2.00;;
59008;SDS011;44794;42.652;23.318;2023-07-29T13:05:19;2.72;;;1.85;;
59008;SDS011;44794;42.652;23.318;2023-07-29T13:07:44;2.42;;;1.73;;
59008;SDS011;44794;42.652;23.318;2023-07-29T13:10:10;2.67;;;1.90;;
59008;SDS011;44794;42.652;23.318;2023-07-29T13:12:35;2.95;;;1.70;;
59008;SDS011;44794;42.652;23.318;2023-07-29T13:15:01;3.83;;;1.80;;
59008;SDS011;44794;42.652;23.318;2023-07-29T13:17:27;2.63;;;1.70;;
59008;SDS011;44794;42.652;23.318;2023-07-29T13:19:52;2.15;;;1.83;;
59008;SDS011;44794;42.652;23.318;2023-07-29T13:22:19;2.80;;;1.67;;
59008;SDS011;44794;42.652;23.318;2023-07-29T13:24:45;4.25;;;1.88;;
59008;SDS011;44794;42.652;23.318;2023-07-29T13:27:11;2.35;;;1.70;;
59008;SDS011;44794;42.652;23.318;2023-07-29T13:29:36;4.10;;;1.92;;
59008;SDS011;44794;42.652;23.318;2023-07-29T13:32:01;2.45;;;1.80;;
59008;SDS011;44794;42.652;23.318;2023-07-29T13:34:27;2.55;;;1.67;;
59008;SDS011;44794;42.652;23.318;2023-07-29T13:36:52;5.13;;;1.77;;
59008;SDS011;44794;42.652;23.318;2023-07-29T13:39:18;3.75;;;1.83;;
59008;SDS011;44794;42.652;23.318;2023-07-29T13:41:44;3.95;;;1.73;;
59008;SDS011;44794;42.652;23.318;2023-07-29T13:44:09;3.30;;;2.08;;
59008;SDS011;44794;42.652;23.318;2023-07-29T13:46:34;3.75;;;2.30;;
59008;SDS011;44794;42.652;23.318;2023-07-29T13:49:00;2.65;;;2.15;;
59008;SDS011;44794;42.652;23.318;2023-07-29T13:51:26;4.93;;;2.22;;
59008;SDS011;44794;42.652;23.318;2023-07-29T13:53:51;3.80;;;2.17;;
59008;SDS011;44794;42.652;23.318;2023-07-29T13:56:17;2.30;;;2.00;;
59008;SDS011;44794;42.652;23.318;2023-07-29T13:58:42;4.07;;;2.20;;
59008;SDS011;44794;42.652;23.318;2023-07-29T14:01:07;3.47;;;2.38;;
59008;SDS011;44794;42.652;23.318;2023-07-29T14:03:33;10.65;;;6.65;;
59008;SDS011;44794;42.652;23.318;2023-07-29T14:05:58;4.03;;;2.70;;
59008;SDS011;44794;42.652;23.318;2023-07-29T14:08:24;10.05;;;2.90;;
59008;SDS011;44794;42.652;23.318;2023-07-29T14:10:49;6.20;;;2.92;;
59008;SDS011;44794;42.652;23.318;2023-07-29T14:13:15;3.85;;;2.35;;
59008;SDS011;44794;42.652;23.318;2023-07-29T14:15:40;3.35;;;2.08;;
59008;SDS011;44794;42.652;23.318;2023-07-29T14:18:06;3.25;;;2.10;;
59008;SDS011;44794;42.652;23.318;2023-07-29T14:20:31;3.72;;;2.00;;
59008;SDS011;44794;42.652;23.318;2023-07-29T14:22:57;4.53;;;1.70;;
59008;SDS011;44794;42.652;23.318;2023-07-29T14:25:23;4.65;;;2.33;;
59008;SDS011;44794;42.652;23.318;2023-07-29T14:27:48;2.67;;;1.90;;
59008;SDS011;44794;42.652;23.318;2023-07-29T14:30:14;3.38;;;2.30;;
59008;SDS011;44794;42.652;23.318;2023-07-29T14:32:39;2.75;;;2.00;;
59008;SDS011;44794;42.652;23.318;2023-07-29T14:35:05;2.88;;;1.90;;
59008;SDS011;44794;42.652;23.318;2023-07-29T14:37:32;5.07;;;2.30;;
59008;SDS011;44794;42.652;23.318;2023-07-29T14:39:58;4.72;;;2.70;;
59008;SDS011;44794;42.652;23.318;2023-07-29T14:42:23;3.45;;;2.05;;
59008;SDS011;44794;42.652;23.318;2023-07-29T14:44:49;2.92;;;2.30;;
59008;SDS011;44794;42.652;23.318;2023-07-29T14:47:14;3.88;;;1.90;;
59008;SDS011;44794;42.652;23.318;2023-07-29T14:49:40;2.72;;;1.92;;